<?xml version="1.0" encoding="UTF-8" standalone="no" ?>
<gpx xmlns="http://www.topografix.com/GPX/1/1" xmlns:xsi="http://www.w3.org/2001/XMLSchema-instance" xsi:schemaLocation="http://www.topografix.com/GPX/1/1 http://www.topografix.com/GPX/1/1/gpx.xsd" version="1.1" creator="VisuGPX - https://www.visugpx.com">
  <metadata>
    <name>Bagnols -Pennafort -Fille d'Isnard</name>
    <desc><![CDATA[avec RA]]></desc>
  </metadata>
  <trk>
    <name><![CDATA[Bagnols -Pennafort -Fille d'Isnard_15]]></name>
    <trkseg>
      <trkpt lat="43.58077" lon="6.7721">
        <ele>154.7</ele>
        <time>2025-01-10T10:51:57.000Z</time>
        <extensions>
          <visugpx:TrkExtension xmlns:visugpx="https://www.visugpx.com/editgpx/">
            <visugpx:node>1</visugpx:node>
            </visugpx:TrkExtension>
        </extensions>
      </trkpt>
      <trkpt lat="43.58073" lon="6.77207">
        <ele>154.7</ele>
        <time>2025-01-10T10:51:56.000Z</time>
      </trkpt>
      <trkpt lat="43.5807" lon="6.77204">
        <ele>154.6</ele>
        <time>2025-01-10T10:51:55.000Z</time>
      </trkpt>
      <trkpt lat="43.58067" lon="6.77201">
        <ele>154.5</ele>
        <time>2025-01-10T10:51:54.000Z</time>
      </trkpt>
      <trkpt lat="43.58065" lon="6.77199">
        <ele>154.3</ele>
        <time>2025-01-10T10:51:53.000Z</time>
      </trkpt>
      <trkpt lat="43.58061" lon="6.77195">
        <ele>154.1</ele>
        <time>2025-01-10T10:51:52.000Z</time>
      </trkpt>
      <trkpt lat="43.58059" lon="6.77192">
        <ele>153.9</ele>
        <time>2025-01-10T10:51:51.000Z</time>
      </trkpt>
      <trkpt lat="43.58057" lon="6.77186">
        <ele>153.6</ele>
        <time>2025-01-10T10:51:50.000Z</time>
      </trkpt>
      <trkpt lat="43.58056" lon="6.77179">
        <ele>153.4</ele>
        <time>2025-01-10T10:51:49.000Z</time>
      </trkpt>
      <trkpt lat="43.58057" lon="6.77173">
        <ele>153.2</ele>
        <time>2025-01-10T10:51:48.000Z</time>
      </trkpt>
      <trkpt lat="43.58058" lon="6.77166">
        <ele>153.2</ele>
        <time>2025-01-10T10:51:47.000Z</time>
      </trkpt>
      <trkpt lat="43.58059" lon="6.77161">
        <ele>153.3</ele>
        <time>2025-01-10T10:51:46.000Z</time>
      </trkpt>
      <trkpt lat="43.58061" lon="6.77156">
        <ele>153.5</ele>
        <time>2025-01-10T10:51:45.000Z</time>
      </trkpt>
      <trkpt lat="43.58065" lon="6.77151">
        <ele>153.7</ele>
        <time>2025-01-10T10:51:44.000Z</time>
      </trkpt>
      <trkpt lat="43.58068" lon="6.77148">
        <ele>154</ele>
        <time>2025-01-10T10:51:43.000Z</time>
      </trkpt>
      <trkpt lat="43.58071" lon="6.77146">
        <ele>154.2</ele>
        <time>2025-01-10T10:51:42.000Z</time>
      </trkpt>
      <trkpt lat="43.58076" lon="6.77146">
        <ele>154.4</ele>
        <time>2025-01-10T10:51:41.000Z</time>
      </trkpt>
      <trkpt lat="43.58081" lon="6.77145">
        <ele>154.5</ele>
        <time>2025-01-10T10:51:40.000Z</time>
      </trkpt>
      <trkpt lat="43.58088" lon="6.77146">
        <ele>154.7</ele>
        <time>2025-01-10T10:51:39.000Z</time>
      </trkpt>
      <trkpt lat="43.58092" lon="6.77147">
        <ele>154.8</ele>
        <time>2025-01-10T10:51:38.000Z</time>
      </trkpt>
      <trkpt lat="43.58097" lon="6.7715">
        <ele>154.8</ele>
        <time>2025-01-10T10:51:37.000Z</time>
      </trkpt>
      <trkpt lat="43.58102" lon="6.77154">
        <ele>154.9</ele>
        <time>2025-01-10T10:51:36.000Z</time>
      </trkpt>
      <trkpt lat="43.58106" lon="6.77159">
        <ele>155</ele>
        <time>2025-01-10T10:51:35.000Z</time>
      </trkpt>
      <trkpt lat="43.58111" lon="6.77163">
        <ele>155</ele>
        <time>2025-01-10T10:51:34.000Z</time>
      </trkpt>
      <trkpt lat="43.58115" lon="6.77167">
        <ele>155.1</ele>
        <time>2025-01-10T10:51:33.000Z</time>
      </trkpt>
      <trkpt lat="43.58121" lon="6.7717">
        <ele>155.2</ele>
        <time>2025-01-10T10:51:32.000Z</time>
      </trkpt>
      <trkpt lat="43.58126" lon="6.77172">
        <ele>155.2</ele>
        <time>2025-01-10T10:51:31.000Z</time>
      </trkpt>
      <trkpt lat="43.58133" lon="6.77172">
        <ele>155.3</ele>
        <time>2025-01-10T10:51:30.000Z</time>
      </trkpt>
      <trkpt lat="43.58139" lon="6.77172">
        <ele>155.4</ele>
        <time>2025-01-10T10:51:29.000Z</time>
      </trkpt>
      <trkpt lat="43.58145" lon="6.77172">
        <ele>155.5</ele>
        <time>2025-01-10T10:51:28.000Z</time>
      </trkpt>
      <trkpt lat="43.58152" lon="6.77172">
        <ele>155.6</ele>
        <time>2025-01-10T10:51:27.000Z</time>
      </trkpt>
      <trkpt lat="43.58159" lon="6.77173">
        <ele>155.7</ele>
        <time>2025-01-10T10:51:26.000Z</time>
      </trkpt>
      <trkpt lat="43.58166" lon="6.77174">
        <ele>155.7</ele>
        <time>2025-01-10T10:51:25.000Z</time>
      </trkpt>
      <trkpt lat="43.58173" lon="6.77175">
        <ele>155.7</ele>
        <time>2025-01-10T10:51:24.000Z</time>
      </trkpt>
      <trkpt lat="43.58181" lon="6.77178">
        <ele>155.7</ele>
        <time>2025-01-10T10:51:23.000Z</time>
      </trkpt>
      <trkpt lat="43.58189" lon="6.7718">
        <ele>155.7</ele>
        <time>2025-01-10T10:51:22.000Z</time>
      </trkpt>
      <trkpt lat="43.58197" lon="6.77182">
        <ele>155.8</ele>
        <time>2025-01-10T10:51:21.000Z</time>
      </trkpt>
      <trkpt lat="43.58206" lon="6.77185">
        <ele>155.8</ele>
        <time>2025-01-10T10:51:20.000Z</time>
      </trkpt>
      <trkpt lat="43.58215" lon="6.77188">
        <ele>156</ele>
        <time>2025-01-10T10:51:19.000Z</time>
      </trkpt>
      <trkpt lat="43.58225" lon="6.7719">
        <ele>156.3</ele>
        <time>2025-01-10T10:51:18.000Z</time>
      </trkpt>
      <trkpt lat="43.58235" lon="6.77192">
        <ele>156.8</ele>
        <time>2025-01-10T10:51:17.000Z</time>
      </trkpt>
      <trkpt lat="43.58245" lon="6.77194">
        <ele>157.6</ele>
        <time>2025-01-10T10:51:16.000Z</time>
      </trkpt>
      <trkpt lat="43.58254" lon="6.77194">
        <ele>158.5</ele>
        <time>2025-01-10T10:51:15.000Z</time>
      </trkpt>
      <trkpt lat="43.58265" lon="6.77194">
        <ele>159.7</ele>
        <time>2025-01-10T10:51:14.000Z</time>
      </trkpt>
      <trkpt lat="43.58272" lon="6.77193">
        <ele>160.7</ele>
        <time>2025-01-10T10:51:13.000Z</time>
      </trkpt>
      <trkpt lat="43.5828" lon="6.77192">
        <ele>161.7</ele>
        <time>2025-01-10T10:51:12.000Z</time>
      </trkpt>
      <trkpt lat="43.58287" lon="6.77191">
        <ele>162.7</ele>
        <time>2025-01-10T10:51:11.000Z</time>
      </trkpt>
      <trkpt lat="43.58294" lon="6.77189">
        <ele>163.5</ele>
        <time>2025-01-10T10:51:10.000Z</time>
      </trkpt>
      <trkpt lat="43.583" lon="6.77187">
        <ele>164.3</ele>
        <time>2025-01-10T10:51:09.000Z</time>
      </trkpt>
      <trkpt lat="43.58306" lon="6.77185">
        <ele>164.8</ele>
        <time>2025-01-10T10:51:08.000Z</time>
      </trkpt>
      <trkpt lat="43.58311" lon="6.77184">
        <ele>165.4</ele>
        <time>2025-01-10T10:51:07.000Z</time>
      </trkpt>
      <trkpt lat="43.58316" lon="6.77182">
        <ele>165.8</ele>
        <time>2025-01-10T10:51:06.000Z</time>
      </trkpt>
      <trkpt lat="43.58321" lon="6.77181">
        <ele>166.1</ele>
        <time>2025-01-10T10:51:05.000Z</time>
      </trkpt>
      <trkpt lat="43.58325" lon="6.77181">
        <ele>166.4</ele>
        <time>2025-01-10T10:51:04.000Z</time>
      </trkpt>
      <trkpt lat="43.58329" lon="6.7718">
        <ele>166.7</ele>
        <time>2025-01-10T10:51:03.000Z</time>
      </trkpt>
      <trkpt lat="43.58333" lon="6.77179">
        <ele>166.9</ele>
        <time>2025-01-10T10:51:02.000Z</time>
      </trkpt>
      <trkpt lat="43.58336" lon="6.77179">
        <ele>167</ele>
        <time>2025-01-10T10:51:01.000Z</time>
      </trkpt>
      <trkpt lat="43.58339" lon="6.77179">
        <ele>167.2</ele>
        <time>2025-01-10T10:51:00.000Z</time>
      </trkpt>
      <trkpt lat="43.58341" lon="6.77178">
        <ele>167.3</ele>
        <time>2025-01-10T10:50:59.000Z</time>
      </trkpt>
      <trkpt lat="43.58343" lon="6.77178">
        <ele>167.2</ele>
        <time>2025-01-10T10:50:58.000Z</time>
      </trkpt>
      <trkpt lat="43.58345" lon="6.77178">
        <ele>167.1</ele>
        <time>2025-01-10T10:50:57.000Z</time>
      </trkpt>
      <trkpt lat="43.58347" lon="6.77178">
        <ele>167.1</ele>
        <time>2025-01-10T10:50:56.000Z</time>
      </trkpt>
      <trkpt lat="43.58349" lon="6.77178">
        <ele>167</ele>
        <time>2025-01-10T10:50:55.000Z</time>
      </trkpt>
      <trkpt lat="43.58351" lon="6.77179">
        <ele>166.9</ele>
        <time>2025-01-10T10:50:54.000Z</time>
      </trkpt>
      <trkpt lat="43.58354" lon="6.77179">
        <ele>166.8</ele>
        <time>2025-01-10T10:50:53.000Z</time>
      </trkpt>
      <trkpt lat="43.58357" lon="6.77178">
        <ele>166.6</ele>
        <time>2025-01-10T10:50:52.000Z</time>
      </trkpt>
      <trkpt lat="43.5836" lon="6.77178">
        <ele>166.4</ele>
        <time>2025-01-10T10:50:51.000Z</time>
      </trkpt>
      <trkpt lat="43.58364" lon="6.77179">
        <ele>166.2</ele>
        <time>2025-01-10T10:50:50.000Z</time>
      </trkpt>
      <trkpt lat="43.58366" lon="6.7718">
        <ele>166</ele>
        <time>2025-01-10T10:50:49.000Z</time>
      </trkpt>
      <trkpt lat="43.58369" lon="6.77183">
        <ele>165.8</ele>
        <time>2025-01-10T10:50:48.000Z</time>
      </trkpt>
      <trkpt lat="43.5837" lon="6.77185">
        <ele>165.7</ele>
        <time>2025-01-10T10:50:47.000Z</time>
      </trkpt>
      <trkpt lat="43.58372" lon="6.77186">
        <ele>165.5</ele>
        <time>2025-01-10T10:50:46.000Z</time>
      </trkpt>
      <trkpt lat="43.58374" lon="6.77187">
        <ele>165.4</ele>
        <time>2025-01-10T10:50:45.000Z</time>
      </trkpt>
      <trkpt lat="43.58377" lon="6.77188">
        <ele>165.2</ele>
        <time>2025-01-10T10:50:44.000Z</time>
      </trkpt>
      <trkpt lat="43.5838" lon="6.77189">
        <ele>165</ele>
        <time>2025-01-10T10:50:43.000Z</time>
      </trkpt>
      <trkpt lat="43.58383" lon="6.7719">
        <ele>164.9</ele>
        <time>2025-01-10T10:50:42.000Z</time>
      </trkpt>
      <trkpt lat="43.58387" lon="6.77191">
        <ele>164.7</ele>
        <time>2025-01-10T10:50:41.000Z</time>
      </trkpt>
      <trkpt lat="43.5839" lon="6.77192">
        <ele>164.5</ele>
        <time>2025-01-10T10:50:40.000Z</time>
      </trkpt>
      <trkpt lat="43.58394" lon="6.77192">
        <ele>164.3</ele>
        <time>2025-01-10T10:50:39.000Z</time>
      </trkpt>
      <trkpt lat="43.58397" lon="6.77193">
        <ele>164.1</ele>
        <time>2025-01-10T10:50:38.000Z</time>
      </trkpt>
      <trkpt lat="43.58401" lon="6.77193">
        <ele>163.9</ele>
        <time>2025-01-10T10:50:37.000Z</time>
      </trkpt>
      <trkpt lat="43.58405" lon="6.77192">
        <ele>163.8</ele>
        <time>2025-01-10T10:50:36.000Z</time>
      </trkpt>
      <trkpt lat="43.58409" lon="6.77191">
        <ele>163.6</ele>
        <time>2025-01-10T10:50:35.000Z</time>
      </trkpt>
      <trkpt lat="43.58412" lon="6.7719">
        <ele>163.5</ele>
        <time>2025-01-10T10:50:34.000Z</time>
      </trkpt>
      <trkpt lat="43.58416" lon="6.77189">
        <ele>163.4</ele>
        <time>2025-01-10T10:50:33.000Z</time>
      </trkpt>
      <trkpt lat="43.5842" lon="6.77188">
        <ele>163.3</ele>
        <time>2025-01-10T10:50:32.000Z</time>
      </trkpt>
      <trkpt lat="43.58424" lon="6.77187">
        <ele>163.2</ele>
        <time>2025-01-10T10:50:31.000Z</time>
      </trkpt>
      <trkpt lat="43.58428" lon="6.77187">
        <ele>163.1</ele>
        <time>2025-01-10T10:50:30.000Z</time>
      </trkpt>
      <trkpt lat="43.58432" lon="6.77186">
        <ele>163</ele>
        <time>2025-01-10T10:50:29.000Z</time>
      </trkpt>
      <trkpt lat="43.58436" lon="6.77186">
        <ele>163</ele>
        <time>2025-01-10T10:50:28.000Z</time>
      </trkpt>
      <trkpt lat="43.5844" lon="6.77185">
        <ele>162.9</ele>
        <time>2025-01-10T10:50:27.000Z</time>
      </trkpt>
      <trkpt lat="43.58443" lon="6.77185">
        <ele>162.9</ele>
        <time>2025-01-10T10:50:26.000Z</time>
      </trkpt>
      <trkpt lat="43.58447" lon="6.77184">
        <ele>162.8</ele>
        <time>2025-01-10T10:50:25.000Z</time>
      </trkpt>
      <trkpt lat="43.58452" lon="6.77184">
        <ele>162.7</ele>
        <time>2025-01-10T10:50:24.000Z</time>
      </trkpt>
      <trkpt lat="43.58457" lon="6.77184">
        <ele>162.6</ele>
        <time>2025-01-10T10:50:23.000Z</time>
      </trkpt>
      <trkpt lat="43.58461" lon="6.77183">
        <ele>162.5</ele>
        <time>2025-01-10T10:50:22.000Z</time>
      </trkpt>
      <trkpt lat="43.58466" lon="6.77183">
        <ele>162.4</ele>
        <time>2025-01-10T10:50:21.000Z</time>
      </trkpt>
      <trkpt lat="43.58471" lon="6.77182">
        <ele>162.3</ele>
        <time>2025-01-10T10:50:20.000Z</time>
      </trkpt>
      <trkpt lat="43.58475" lon="6.77182">
        <ele>162.1</ele>
        <time>2025-01-10T10:50:19.000Z</time>
      </trkpt>
      <trkpt lat="43.58479" lon="6.77181">
        <ele>162</ele>
        <time>2025-01-10T10:50:18.000Z</time>
      </trkpt>
      <trkpt lat="43.58483" lon="6.7718">
        <ele>161.8</ele>
        <time>2025-01-10T10:50:17.000Z</time>
      </trkpt>
      <trkpt lat="43.58488" lon="6.77178">
        <ele>161.6</ele>
        <time>2025-01-10T10:50:16.000Z</time>
      </trkpt>
      <trkpt lat="43.58492" lon="6.77176">
        <ele>161.5</ele>
        <time>2025-01-10T10:50:15.000Z</time>
      </trkpt>
      <trkpt lat="43.58497" lon="6.77174">
        <ele>161.3</ele>
        <time>2025-01-10T10:50:14.000Z</time>
      </trkpt>
      <trkpt lat="43.58501" lon="6.77173">
        <ele>161.1</ele>
        <time>2025-01-10T10:50:13.000Z</time>
      </trkpt>
      <trkpt lat="43.58506" lon="6.77171">
        <ele>160.9</ele>
        <time>2025-01-10T10:50:12.000Z</time>
      </trkpt>
      <trkpt lat="43.5851" lon="6.77168">
        <ele>160.6</ele>
        <time>2025-01-10T10:50:11.000Z</time>
      </trkpt>
      <trkpt lat="43.58515" lon="6.77166">
        <ele>160.4</ele>
        <time>2025-01-10T10:50:10.000Z</time>
      </trkpt>
      <trkpt lat="43.5852" lon="6.77164">
        <ele>160.1</ele>
        <time>2025-01-10T10:50:09.000Z</time>
      </trkpt>
      <trkpt lat="43.58524" lon="6.77162">
        <ele>159.9</ele>
        <time>2025-01-10T10:50:08.000Z</time>
      </trkpt>
      <trkpt lat="43.58529" lon="6.77159">
        <ele>159.6</ele>
        <time>2025-01-10T10:50:07.000Z</time>
      </trkpt>
      <trkpt lat="43.58535" lon="6.77157">
        <ele>159.3</ele>
        <time>2025-01-10T10:50:06.000Z</time>
      </trkpt>
      <trkpt lat="43.58539" lon="6.77156">
        <ele>159</ele>
        <time>2025-01-10T10:50:05.000Z</time>
      </trkpt>
      <trkpt lat="43.58543" lon="6.77154">
        <ele>158.7</ele>
        <time>2025-01-10T10:50:04.000Z</time>
      </trkpt>
      <trkpt lat="43.58548" lon="6.77152">
        <ele>158.4</ele>
        <time>2025-01-10T10:50:03.000Z</time>
      </trkpt>
      <trkpt lat="43.58553" lon="6.77151">
        <ele>158</ele>
        <time>2025-01-10T10:50:02.000Z</time>
      </trkpt>
      <trkpt lat="43.58559" lon="6.7715">
        <ele>157.6</ele>
        <time>2025-01-10T10:50:01.000Z</time>
      </trkpt>
      <trkpt lat="43.58563" lon="6.77149">
        <ele>157.4</ele>
        <time>2025-01-10T10:50:00.000Z</time>
      </trkpt>
      <trkpt lat="43.58568" lon="6.77149">
        <ele>157</ele>
        <time>2025-01-10T10:49:59.000Z</time>
      </trkpt>
      <trkpt lat="43.58573" lon="6.77148">
        <ele>156.8</ele>
        <time>2025-01-10T10:49:58.000Z</time>
      </trkpt>
      <trkpt lat="43.58578" lon="6.77148">
        <ele>156.7</ele>
        <time>2025-01-10T10:49:57.000Z</time>
      </trkpt>
      <trkpt lat="43.58583" lon="6.77147">
        <ele>156.5</ele>
        <time>2025-01-10T10:49:56.000Z</time>
      </trkpt>
      <trkpt lat="43.58587" lon="6.77146">
        <ele>156.3</ele>
        <time>2025-01-10T10:49:55.000Z</time>
      </trkpt>
      <trkpt lat="43.58592" lon="6.77146">
        <ele>156.2</ele>
        <time>2025-01-10T10:49:54.000Z</time>
      </trkpt>
      <trkpt lat="43.58597" lon="6.77146">
        <ele>156</ele>
        <time>2025-01-10T10:49:53.000Z</time>
      </trkpt>
      <trkpt lat="43.58602" lon="6.77146">
        <ele>155.9</ele>
        <time>2025-01-10T10:49:52.000Z</time>
      </trkpt>
      <trkpt lat="43.58608" lon="6.77145">
        <ele>155.8</ele>
        <time>2025-01-10T10:49:51.000Z</time>
      </trkpt>
      <trkpt lat="43.58612" lon="6.77145">
        <ele>155.6</ele>
        <time>2025-01-10T10:49:50.000Z</time>
      </trkpt>
      <trkpt lat="43.58616" lon="6.77145">
        <ele>155.6</ele>
        <time>2025-01-10T10:49:49.000Z</time>
      </trkpt>
      <trkpt lat="43.5862" lon="6.77145">
        <ele>155.5</ele>
        <time>2025-01-10T10:49:48.000Z</time>
      </trkpt>
      <trkpt lat="43.58625" lon="6.77144">
        <ele>155.4</ele>
        <time>2025-01-10T10:49:47.000Z</time>
      </trkpt>
      <trkpt lat="43.58629" lon="6.77144">
        <ele>155.3</ele>
        <time>2025-01-10T10:49:46.000Z</time>
      </trkpt>
      <trkpt lat="43.58633" lon="6.77145">
        <ele>155.3</ele>
        <time>2025-01-10T10:49:45.000Z</time>
      </trkpt>
      <trkpt lat="43.58637" lon="6.77145">
        <ele>155.2</ele>
        <time>2025-01-10T10:49:44.000Z</time>
      </trkpt>
      <trkpt lat="43.5864" lon="6.77146">
        <ele>155.1</ele>
        <time>2025-01-10T10:49:43.000Z</time>
      </trkpt>
      <trkpt lat="43.58644" lon="6.77147">
        <ele>155</ele>
        <time>2025-01-10T10:49:42.000Z</time>
      </trkpt>
      <trkpt lat="43.58648" lon="6.77148">
        <ele>154.9</ele>
        <time>2025-01-10T10:49:41.000Z</time>
      </trkpt>
      <trkpt lat="43.58652" lon="6.77149">
        <ele>154.8</ele>
        <time>2025-01-10T10:49:40.000Z</time>
      </trkpt>
      <trkpt lat="43.58654" lon="6.77149">
        <ele>154.7</ele>
        <time>2025-01-10T10:49:39.000Z</time>
      </trkpt>
      <trkpt lat="43.58658" lon="6.77151">
        <ele>154.5</ele>
        <time>2025-01-10T10:49:38.000Z</time>
      </trkpt>
      <trkpt lat="43.58662" lon="6.77152">
        <ele>154.4</ele>
        <time>2025-01-10T10:49:37.000Z</time>
      </trkpt>
    </trkseg>
  </trk>
</gpx>